Terminal Aerodrome Forecast
Issued by NWS Twin Cities, MN

Home | Current Version | Previous Version | Text Only | Print | Product List | Glossary Off
Versions: 1 2 3 4 5 6 7 8 9 10 11 12 13 14 15 16 17 18 19 20 21 22 23 24 25 26 27 28 29 30

755
FTUS43 KMPX 230520
TAFMSP
TAF
KMSP 230520Z 2306/2412 14012KT P6SM OVC070
     FM231600 14013G19KT P6SM SCT025 OVC050
     FM232200 15013KT 6SM -SHRA BR OVC015
     FM240400 15008KT 5SM -RA OVC008=

USA.gov is the U.S. government's official web portal to all federal, state and local government web resources and services.